createdAt,value
2018-03-28T00:00:25.102Z,1029.07
2018-03-28T00:01:25.679Z,1029.09
2018-03-28T00:02:26.257Z,1029.09
2018-03-28T00:03:26.834Z,1029.05
2018-03-28T00:04:27.411Z,1029.10
2018-03-28T00:05:28.038Z,1029.03
2018-03-28T00:06:28.616Z,1029.03
2018-03-28T00:07:29.196Z,1028.97
2018-03-28T00:08:29.774Z,1028.96
2018-03-28T00:09:30.353Z,1028.93
2018-03-28T00:10:30.980Z,1028.97
2018-03-28T00:11:31.557Z,1029.00
2018-03-28T00:12:32.141Z,1028.97
2018-03-28T00:13:32.808Z,1028.97
2018-03-28T00:14:33.387Z,1028.97
2018-03-28T00:15:34.021Z,1029.00
2018-03-28T00:16:34.594Z,1029.02
2018-03-28T00:17:35.172Z,1029.00
2018-03-28T00:18:35.747Z,1029.00
2018-03-28T00:19:36.326Z,1028.98
2018-03-28T00:20:36.903Z,1028.95
2018-03-28T00:21:37.531Z,1028.98
2018-03-28T00:22:38.109Z,1028.99
2018-03-28T00:23:38.686Z,1029.02
2018-03-28T00:24:39.267Z,1028.90
2018-03-28T00:25:39.842Z,1028.91
2018-03-28T00:26:40.419Z,1028.92
2018-03-28T00:27:40.996Z,1028.95
2018-03-28T00:28:41.573Z,1028.93
2018-03-28T00:29:42.150Z,1028.88
2018-03-28T00:30:42.778Z,1028.91
2018-03-28T00:31:43.357Z,1028.91
2018-03-28T00:32:43.934Z,1028.88
2018-03-28T00:33:44.512Z,1028.86
2018-03-28T00:34:45.140Z,1028.88
2018-03-28T00:35:45.809Z,1028.81
2018-03-28T00:36:46.390Z,1028.84
2018-03-28T00:37:46.967Z,1028.81
2018-03-28T00:38:47.543Z,1028.80
2018-03-28T00:39:48.124Z,1028.85
2018-03-28T00:40:48.697Z,1028.85
2018-03-28T00:41:49.272Z,1028.78
2018-03-28T00:42:49.851Z,1028.85
2018-03-28T00:43:50.430Z,1028.82
2018-03-28T00:44:51.009Z,1028.82
2018-03-28T00:45:51.588Z,1028.87
2018-03-28T00:46:52.167Z,1028.86
2018-03-28T00:47:52.746Z,1028.86
2018-03-28T00:48:53.374Z,1028.80
2018-03-28T00:49:53.955Z,1028.79
2018-03-28T00:50:55.381Z,1028.79
2018-03-28T00:51:56.007Z,1028.82
2018-03-28T00:52:56.587Z,1028.69
2018-03-28T00:57:00.737Z,1028.73
2018-03-28T00:58:01.314Z,1028.64
2018-03-28T00:59:01.898Z,1028.66
2018-03-28T01:03:17.184Z,1028.60
2018-03-28T01:04:17.762Z,1028.65
2018-03-28T01:05:18.342Z,1028.65
2018-03-28T01:06:18.969Z,1028.58
2018-03-28T01:07:19.596Z,1028.54
2018-03-28T01:08:20.173Z,1028.59
2018-03-28T01:09:20.749Z,1028.56
2018-03-28T01:10:21.376Z,1028.50
2018-03-28T01:11:21.956Z,1028.47
2018-03-28T01:12:22.533Z,1028.49
2018-03-28T01:13:23.110Z,1028.52
2018-03-28T01:14:23.687Z,1028.47
2018-03-28T01:15:24.265Z,1028.41
2018-03-28T01:16:24.842Z,1028.47
2018-03-28T01:17:25.418Z,1028.36
2018-03-28T01:18:25.995Z,1028.32
2018-03-28T01:19:26.572Z,1028.38
2018-03-28T01:20:27.148Z,1028.37
2018-03-28T01:21:27.776Z,1028.41
2018-03-28T01:22:28.406Z,1028.37
2018-03-28T01:23:28.986Z,1028.37
2018-03-28T01:24:29.557Z,1028.33
2018-03-28T01:25:30.133Z,1028.36
2018-03-28T01:26:30.762Z,1028.31
2018-03-28T01:27:31.342Z,1028.34
2018-03-28T01:28:31.956Z,1028.44
2018-03-28T01:29:32.579Z,1028.35
2018-03-28T01:30:33.155Z,1028.46
2018-03-28T01:31:33.732Z,1028.36
2018-03-28T01:32:34.309Z,1028.43
2018-03-28T01:33:34.887Z,1028.33
2018-03-28T01:34:35.465Z,1028.32
2018-03-28T01:35:36.043Z,1028.36
2018-03-28T01:37:38.336Z,1028.33
2018-03-28T01:39:44.732Z,1028.23
2018-03-28T01:42:20.506Z,1028.19
2018-03-28T01:43:21.076Z,1028.08
2018-03-28T01:44:21.697Z,1028.16
2018-03-28T01:45:22.269Z,1028.05
2018-03-28T01:46:22.841Z,1027.98
2018-03-28T01:47:23.412Z,1028.01
2018-03-28T01:48:24.077Z,1028.05
2018-03-28T01:49:24.648Z,1027.98
2018-03-28T01:50:25.218Z,1027.98
2018-03-28T01:51:25.791Z,1027.88
2018-03-28T01:52:26.362Z,1027.92
2018-03-28T01:53:26.932Z,1027.97
2018-03-28T01:54:27.504Z,1027.85
2018-03-28T01:55:28.077Z,1027.92
2018-03-28T01:56:28.650Z,1027.86
2018-03-28T01:57:29.219Z,1027.91
2018-03-28T01:58:29.791Z,1027.88
2018-03-28T01:59:31.221Z,1027.94
2018-03-28T02:02:18.518Z,1027.86
2018-03-28T02:03:40.864Z,1027.82
2018-03-28T02:05:08.532Z,1027.85
2018-03-28T02:06:36.194Z,1027.79
2018-03-28T02:07:36.765Z,1027.84
2018-03-28T02:08:37.338Z,1027.77
2018-03-28T02:09:37.910Z,1027.76
2018-03-28T02:11:40.255Z,1027.75
2018-03-28T02:13:11.862Z,1027.72
2018-03-28T02:14:12.434Z,1027.70
2018-03-28T02:15:13.006Z,1027.71
2018-03-28T02:16:13.578Z,1027.70
2018-03-28T02:17:36.162Z,1027.66
2018-03-28T02:18:36.746Z,1027.76
2018-03-28T02:19:37.316Z,1027.73
2018-03-28T02:26:47.542Z,1027.70
2018-03-28T02:27:48.112Z,1027.62
2018-03-28T02:28:48.684Z,1027.68
2018-03-28T02:29:49.350Z,1027.65
2018-03-28T02:36:11.429Z,1027.49
2018-03-28T02:53:48.472Z,1027.17
2018-03-28T02:56:50.265Z,1027.18
2018-03-28T02:57:50.890Z,1027.18
2018-03-28T02:58:51.509Z,1027.16
2018-03-28T02:59:52.079Z,1027.18
2018-03-28T03:00:52.651Z,1027.21
2018-03-28T03:03:32.435Z,1027.10
2018-03-28T03:09:44.508Z,1027.14
2018-03-28T03:42:04.834Z,1026.66
2018-03-28T04:23:52.590Z,1026.16
2018-03-28T04:24:53.151Z,1026.13
2018-03-28T04:25:53.771Z,1026.11
2018-03-28T04:26:54.345Z,1026.17
2018-03-28T04:27:54.916Z,1026.10
2018-03-28T04:28:55.485Z,1026.15
2018-03-28T04:29:56.061Z,1026.10
2018-03-28T04:30:56.678Z,1026.13
2018-03-28T04:31:58.263Z,1026.15
2018-03-28T04:32:58.833Z,1026.05
2018-03-28T04:33:59.404Z,1026.06
2018-03-28T04:35:41.776Z,1026.14
2018-03-28T04:38:19.542Z,1026.09
2018-03-28T04:39:53.994Z,1026.05
2018-03-28T05:44:31.434Z,1025.66
2018-03-28T05:45:32.108Z,1025.67
2018-03-28T05:46:32.726Z,1025.65
2018-03-28T05:47:33.347Z,1025.65
2018-03-28T05:48:33.916Z,1025.66
2018-03-28T05:49:34.488Z,1025.69
2018-03-28T05:50:35.059Z,1025.62
2018-03-28T05:51:35.628Z,1025.61
2018-03-28T05:52:36.201Z,1025.63
2018-03-28T05:53:36.824Z,1025.59
2018-03-28T05:54:37.396Z,1025.59
2018-03-28T05:55:37.973Z,1025.56
2018-03-28T05:56:38.588Z,1025.61
2018-03-28T05:57:39.159Z,1025.57
2018-03-28T05:58:39.730Z,1025.56
2018-03-28T05:59:40.302Z,1025.53
2018-03-28T06:00:40.925Z,1025.55
2018-03-28T06:01:41.498Z,1025.58
2018-03-28T06:02:42.119Z,1025.48
2018-03-28T06:03:42.692Z,1025.54
2018-03-28T06:04:43.318Z,1025.58
2018-03-28T06:05:43.926Z,1025.53
2018-03-28T06:06:44.499Z,1025.56
2018-03-28T06:07:45.070Z,1025.54
2018-03-28T06:08:45.643Z,1025.62
2018-03-28T06:09:46.214Z,1025.56
2018-03-28T06:10:46.785Z,1025.59
2018-03-28T06:11:47.359Z,1025.62
2018-03-28T06:12:47.932Z,1025.54
2018-03-28T06:13:48.503Z,1025.54
2018-03-28T06:14:49.131Z,1025.50
2018-03-28T06:15:49.686Z,1025.52
2018-03-28T06:16:50.258Z,1025.55
2018-03-28T06:17:50.831Z,1025.55
2018-03-28T06:18:51.404Z,1025.52
2018-03-28T06:19:52.026Z,1025.58
2018-03-28T06:20:52.598Z,1025.51
2018-03-28T06:21:53.171Z,1025.58
2018-03-28T06:22:53.794Z,1025.53
2018-03-28T06:23:54.365Z,1025.43
2018-03-28T06:24:54.993Z,1025.45
2018-03-28T06:25:55.566Z,1025.50
2018-03-28T06:26:56.133Z,1025.47
2018-03-28T06:27:56.706Z,1025.49
2018-03-28T06:28:57.277Z,1025.42
2018-03-28T06:29:57.852Z,1025.45
2018-03-28T06:30:58.424Z,1025.50
2018-03-28T06:31:58.995Z,1025.45
2018-03-28T06:32:59.569Z,1025.43
2018-03-28T06:34:00.190Z,1025.43
2018-03-28T06:35:00.764Z,1025.41
2018-03-28T06:36:01.337Z,1025.44
2018-03-28T06:37:01.911Z,1025.41
2018-03-28T06:38:02.481Z,1025.43
2018-03-28T06:39:03.103Z,1025.43
2018-03-28T06:44:31.369Z,1025.46
2018-03-28T06:48:35.225Z,1025.43
2018-03-28T06:49:35.802Z,1025.45
2018-03-28T06:50:36.385Z,1025.46
2018-03-28T06:51:36.961Z,1025.44
2018-03-28T06:52:37.541Z,1025.54
2018-03-28T06:53:38.120Z,1025.48
2018-03-28T06:54:38.701Z,1025.45
2018-03-28T06:55:39.279Z,1025.40
2018-03-28T06:56:39.861Z,1025.47
2018-03-28T06:57:40.486Z,1025.43
2018-03-28T06:58:41.114Z,1025.38
2018-03-28T06:59:41.714Z,1025.43
2018-03-28T07:00:42.268Z,1025.43
2018-03-28T07:01:42.846Z,1025.46
2018-03-28T07:02:43.573Z,1025.43
2018-03-28T07:03:44.148Z,1025.45
2018-03-28T07:04:44.725Z,1025.43
2018-03-28T07:05:45.302Z,1025.42
2018-03-28T07:06:45.884Z,1025.42
2018-03-28T07:07:46.458Z,1025.49
2018-03-28T07:08:47.036Z,1025.47
2018-03-28T07:09:47.613Z,1025.40
2018-03-28T07:10:48.190Z,1025.43
2018-03-28T07:11:48.768Z,1025.41
2018-03-28T07:12:49.345Z,1025.30
2018-03-28T07:13:49.923Z,1025.38
2018-03-28T07:14:50.499Z,1025.39
2018-03-28T07:15:51.127Z,1025.39
2018-03-28T07:16:51.855Z,1025.43
2018-03-28T07:17:52.434Z,1025.41
2018-03-28T07:18:53.010Z,1025.35
2018-03-28T07:19:53.589Z,1025.39
2018-03-28T07:20:54.220Z,1025.44
2018-03-28T07:21:54.796Z,1025.37
2018-03-28T07:22:55.376Z,1025.36
2018-03-28T07:23:55.953Z,1025.35
2018-03-28T07:24:56.532Z,1025.33
2018-03-28T07:25:57.114Z,1025.31
2018-03-28T07:26:57.780Z,1025.27
2018-03-28T07:27:58.358Z,1025.34
2018-03-28T07:28:58.934Z,1025.34
2018-03-28T07:29:59.513Z,1025.32
2018-03-28T07:31:00.088Z,1025.34
2018-03-28T07:32:00.664Z,1025.35
2018-03-28T07:33:01.291Z,1025.31
2018-03-28T07:34:01.871Z,1025.34
2018-03-28T07:35:02.541Z,1025.40
2018-03-28T07:36:03.116Z,1025.41
2018-03-28T07:37:03.693Z,1025.27
2018-03-28T07:38:04.325Z,1025.35
2018-03-28T07:39:04.897Z,1025.28
2018-03-28T07:40:05.475Z,1025.33
2018-03-28T07:41:06.051Z,1025.32
2018-03-28T07:42:06.629Z,1025.27
2018-03-28T07:43:07.204Z,1025.31
2018-03-28T07:44:07.784Z,1025.26
2018-03-28T07:45:08.358Z,1025.21
2018-03-28T07:46:08.935Z,1025.30
2018-03-28T07:47:09.513Z,1025.31
2018-03-28T07:48:10.091Z,1025.33
2018-03-28T07:49:10.676Z,1025.28
2018-03-28T07:50:11.402Z,1025.21
2018-03-28T07:51:11.979Z,1025.32
2018-03-28T08:25:37.932Z,1025.11
2018-03-28T09:21:23.365Z,1025.47
2018-03-28T09:22:24.090Z,1025.51
2018-03-28T09:23:24.709Z,1025.55
2018-03-28T09:24:25.285Z,1025.53
2018-03-28T09:25:25.852Z,1025.51
2018-03-28T09:26:26.423Z,1025.56
2018-03-28T09:27:26.995Z,1025.50
2018-03-28T09:28:27.611Z,1025.44
2018-03-28T09:29:28.183Z,1025.45
2018-03-28T09:30:28.757Z,1025.38
2018-03-28T09:31:29.332Z,1025.42
2018-03-28T10:00:52.684Z,1025.30
2018-03-28T10:01:53.312Z,1025.24
2018-03-28T10:16:51.367Z,1025.18
2018-03-28T10:19:36.718Z,1025.27
2018-03-28T11:35:01.481Z,1024.66
2018-03-28T11:36:02.159Z,1024.57
2018-03-28T11:37:02.746Z,1024.59
2018-03-28T11:39:04.904Z,1024.58
2018-03-28T11:40:05.494Z,1024.58
2018-03-28T11:41:06.082Z,1024.55
2018-03-28T11:42:06.672Z,1024.52
2018-03-28T11:43:07.315Z,1024.45
2018-03-28T11:44:08.088Z,1024.45
2018-03-28T11:45:08.678Z,1024.39
2018-03-28T11:46:09.268Z,1024.41
2018-03-28T11:47:09.857Z,1024.43
2018-03-28T11:48:10.446Z,1024.46
2018-03-28T11:49:11.037Z,1024.40
2018-03-28T11:50:11.624Z,1024.41
2018-03-28T11:51:12.263Z,1024.43
2018-03-28T11:52:12.855Z,1024.30
2018-03-28T11:53:13.440Z,1024.41
2018-03-28T11:54:14.080Z,1024.38
2018-03-28T11:55:14.673Z,1024.36
2018-03-28T11:56:15.303Z,1024.27
2018-03-28T11:57:15.893Z,1024.33
2018-03-28T11:58:16.482Z,1024.30
2018-03-28T11:59:17.072Z,1024.31
2018-03-28T12:00:17.663Z,1024.35
2018-03-28T12:01:18.253Z,1024.16
2018-03-28T12:02:18.893Z,1024.16
2018-03-28T12:03:19.528Z,1024.21
2018-03-28T12:04:20.120Z,1024.30
2018-03-28T12:05:20.710Z,1024.26
2018-03-28T12:06:21.300Z,1024.30
2018-03-28T12:07:21.894Z,1024.28
2018-03-28T12:08:22.484Z,1024.27
2018-03-28T12:09:23.077Z,1024.21
2018-03-28T12:10:23.722Z,1024.17
2018-03-28T12:11:24.316Z,1024.10
2018-03-28T12:12:24.907Z,1024.19
2018-03-28T12:13:25.503Z,1024.15
2018-03-28T12:14:26.094Z,1024.14
2018-03-28T12:15:26.735Z,1024.06
2018-03-28T12:16:27.328Z,1024.03
2018-03-28T12:17:41.685Z,1024.05
2018-03-28T12:18:42.309Z,1024.06
2018-03-28T12:19:42.948Z,1024.01
2018-03-28T12:21:45.121Z,1024.03
2018-03-28T12:23:47.302Z,1023.99
2018-03-28T12:24:47.897Z,1023.96
2018-03-28T12:25:53.548Z,1023.89
2018-03-28T12:26:54.143Z,1023.92
2018-03-28T12:27:54.790Z,1024.05
2018-03-28T12:28:55.386Z,1023.91
2018-03-28T12:29:56.030Z,1023.97
2018-03-28T12:30:56.626Z,1023.96
2018-03-28T12:31:57.220Z,1023.84
2018-03-28T12:32:57.816Z,1023.80
2018-03-28T12:33:58.461Z,1023.86
2018-03-28T12:34:59.057Z,1023.77
2018-03-28T12:35:59.652Z,1023.79
2018-03-28T12:37:00.249Z,1023.78
2018-03-28T12:38:00.887Z,1023.71
2018-03-28T12:39:01.483Z,1023.69
2018-03-28T12:40:02.080Z,1023.73
2018-03-28T12:41:02.675Z,1023.72
2018-03-28T12:42:03.302Z,1023.57
2018-03-28T12:43:03.898Z,1023.68
2018-03-28T12:44:04.511Z,1023.60
2018-03-28T12:45:05.110Z,1023.61
2018-03-28T12:46:05.759Z,1023.56
2018-03-28T12:47:06.351Z,1023.49
2018-03-28T12:48:06.946Z,1023.52
2018-03-28T12:49:07.616Z,1023.47
2018-03-28T12:50:08.214Z,1023.44
2018-03-28T12:51:08.808Z,1023.41
2018-03-28T12:52:09.418Z,1023.43
2018-03-28T12:53:10.008Z,1023.35
2018-03-28T12:54:10.631Z,1023.31
2018-03-28T12:55:11.215Z,1023.32
2018-03-28T12:56:11.773Z,1023.23
2018-03-28T12:57:12.417Z,1023.28
2018-03-28T12:58:13.011Z,1023.33
2018-03-28T12:59:13.608Z,1023.27
2018-03-28T13:00:14.201Z,1023.24
2018-03-28T13:01:14.797Z,1023.26
2018-03-28T13:02:15.442Z,1023.17
2018-03-28T13:04:17.671Z,1023.19
2018-03-28T13:05:18.268Z,1023.10
2018-03-28T13:06:18.903Z,1023.22
2018-03-28T13:07:19.479Z,1023.14
2018-03-28T13:08:20.067Z,1023.21
2018-03-28T13:09:20.654Z,1023.12
2018-03-28T13:10:21.283Z,1023.18
2018-03-28T13:11:21.870Z,1023.16
2018-03-28T13:12:22.507Z,1023.20
2018-03-28T13:13:23.096Z,1023.19
2018-03-28T13:14:23.682Z,1023.12
2018-03-28T13:15:24.272Z,1023.14
2018-03-28T13:19:29.613Z,1023.10
2018-03-28T13:20:30.355Z,1023.09
2018-03-28T13:21:31.001Z,1023.03
2018-03-28T13:22:31.594Z,1023.09
2018-03-28T13:23:32.243Z,1023.11
2018-03-28T13:24:32.829Z,1023.07
2018-03-28T13:25:33.423Z,1023.13
2018-03-28T13:26:34.014Z,1023.13
2018-03-28T13:27:34.655Z,1023.03
2018-03-28T13:28:35.249Z,1023.09
2018-03-28T13:29:35.846Z,1023.08
2018-03-28T13:30:36.432Z,1023.04
2018-03-28T13:31:37.028Z,1023.09
2018-03-28T13:32:37.614Z,1022.98
2018-03-28T13:33:38.205Z,1022.98
2018-03-28T13:34:38.795Z,1023.05
2018-03-28T13:35:39.385Z,1022.99
2018-03-28T13:36:39.976Z,1022.94
2018-03-28T13:37:40.566Z,1023.00
2018-03-28T13:38:41.153Z,1022.98
2018-03-28T13:39:41.830Z,1022.98
2018-03-28T13:40:42.434Z,1023.00
2018-03-28T13:41:43.065Z,1022.99
2018-03-28T13:42:43.651Z,1023.05
2018-03-28T13:43:44.291Z,1023.03
2018-03-28T13:44:44.880Z,1022.96
2018-03-28T13:45:45.472Z,1023.00
2018-03-28T13:46:46.058Z,1023.04
2018-03-28T13:47:46.645Z,1022.93
2018-03-28T13:48:47.234Z,1022.98
2018-03-28T13:49:47.825Z,1023.00
2018-03-28T13:50:48.412Z,1023.03
2018-03-28T13:51:49.045Z,1022.98
2018-03-28T13:52:49.604Z,1022.92
2018-03-28T13:53:50.178Z,1022.84
2018-03-28T13:54:50.767Z,1022.96
2018-03-28T13:55:51.404Z,1022.90
2018-03-28T13:56:51.994Z,1022.92
2018-03-28T13:57:52.581Z,1022.88
2018-03-28T13:58:53.168Z,1022.88
2018-03-28T13:59:53.758Z,1022.86
2018-03-28T14:00:54.395Z,1022.84
2018-03-28T14:01:54.984Z,1022.83
2018-03-28T14:02:55.571Z,1022.76
2018-03-28T14:03:56.159Z,1022.79
2018-03-28T14:04:56.797Z,1022.72
2018-03-28T14:05:57.389Z,1022.71
2018-03-28T14:06:57.973Z,1022.76
2018-03-28T14:07:58.563Z,1022.81
2018-03-28T14:08:59.152Z,1022.85
2018-03-28T14:09:59.736Z,1022.69
2018-03-28T14:11:00.324Z,1022.73
2018-03-28T14:12:00.910Z,1022.70
2018-03-28T14:13:01.498Z,1022.70
2018-03-28T14:14:02.087Z,1022.66
2018-03-28T14:15:02.673Z,1022.67
2018-03-28T14:16:03.303Z,1022.66
2018-03-28T14:17:03.892Z,1022.54
2018-03-28T14:18:04.478Z,1022.64
2018-03-28T14:19:05.114Z,1022.61
2018-03-28T14:20:05.751Z,1022.64
2018-03-28T14:21:06.342Z,1022.55
2018-03-28T14:24:37.017Z,1022.50
2018-03-28T14:27:40.759Z,1022.45
2018-03-28T14:28:41.387Z,1022.41
2018-03-28T14:29:41.974Z,1022.37
2018-03-28T14:30:42.587Z,1022.30
2018-03-28T14:31:43.157Z,1022.35
2018-03-28T14:32:43.734Z,1022.29
2018-03-28T14:33:44.321Z,1022.33
2018-03-28T14:34:44.908Z,1022.39
2018-03-28T14:35:45.541Z,1022.30
2018-03-28T14:36:46.130Z,1022.30
2018-03-28T14:37:46.714Z,1022.26
2018-03-28T14:38:47.297Z,1022.33
2018-03-28T14:40:49.461Z,1022.21
2018-03-28T14:41:50.045Z,1022.16
2018-03-28T14:42:54.586Z,1022.08
2018-03-28T14:43:51.268Z,1022.12
2018-03-28T14:44:51.904Z,1022.11
2018-03-28T14:45:52.489Z,1022.11
2018-03-28T14:46:53.074Z,1022.15
2018-03-28T14:47:53.660Z,1022.19
2018-03-28T14:48:54.246Z,1022.13
2018-03-28T14:49:54.838Z,1022.16
2018-03-28T14:50:55.424Z,1022.14
2018-03-28T14:51:56.009Z,1022.16
2018-03-28T14:52:56.596Z,1022.07
2018-03-28T14:53:57.183Z,1022.03
2018-03-28T14:54:57.768Z,1022.05
2018-03-28T14:55:58.356Z,1021.98
2018-03-28T14:56:58.942Z,1021.95
2018-03-28T14:57:59.579Z,1021.98
2018-03-28T14:59:00.164Z,1021.95
2018-03-28T15:00:00.752Z,1022.08
2018-03-28T15:01:01.338Z,1021.97
2018-03-28T15:02:01.923Z,1021.92
2018-03-28T15:03:02.511Z,1021.97
2018-03-28T15:04:03.146Z,1021.98
2018-03-28T15:05:03.782Z,1021.94
2018-03-28T15:06:04.369Z,1022.01
2018-03-28T15:07:04.956Z,1022.00
2018-03-28T15:08:05.563Z,1021.92
2018-03-28T15:09:06.135Z,1021.95
2018-03-28T15:10:06.765Z,1021.87
2018-03-28T15:11:07.347Z,1021.80
2018-03-28T15:12:07.936Z,1021.92
2018-03-28T15:13:08.571Z,1021.85
2018-03-28T15:14:09.151Z,1021.85
2018-03-28T15:15:09.738Z,1021.77
2018-03-28T15:16:10.323Z,1021.81
2018-03-28T15:17:10.909Z,1021.76
2018-03-28T15:18:11.499Z,1021.65
2018-03-28T15:19:12.079Z,1021.73
2018-03-28T15:20:12.723Z,1021.63
2018-03-28T15:21:13.347Z,1021.60
2018-03-28T15:22:13.935Z,1021.56
2018-03-28T15:23:14.521Z,1021.56
2018-03-28T15:24:15.107Z,1021.47
2018-03-28T15:25:15.694Z,1021.50
2018-03-28T15:26:16.330Z,1021.52
2018-03-28T15:27:16.916Z,1021.51
2018-03-28T15:28:17.501Z,1021.50
2018-03-28T15:29:18.288Z,1021.50
2018-03-28T15:30:18.874Z,1021.55
2018-03-28T15:31:19.504Z,1021.48
2018-03-28T15:32:20.090Z,1021.42
2018-03-28T15:33:20.678Z,1021.48
2018-03-28T15:34:21.265Z,1021.43
2018-03-28T15:35:21.849Z,1021.36
2018-03-28T15:36:22.486Z,1021.34
2018-03-28T15:37:23.123Z,1021.34
2018-03-28T15:38:23.711Z,1021.35
2018-03-28T15:39:24.297Z,1021.32
2018-03-28T15:40:24.881Z,1021.33
2018-03-28T15:41:25.519Z,1021.27
2018-03-28T15:42:26.107Z,1021.31
2018-03-28T15:43:26.693Z,1021.30
2018-03-28T15:44:27.279Z,1021.37
2018-03-28T15:45:27.866Z,1021.35
2018-03-28T15:46:28.451Z,1021.31
2018-03-28T15:47:29.086Z,1021.35
2018-03-28T15:48:29.671Z,1021.33
2018-03-28T15:49:30.256Z,1021.24
2018-03-28T15:50:30.921Z,1021.36
2018-03-28T15:51:31.474Z,1021.37
2018-03-28T15:52:32.059Z,1021.31
2018-03-28T15:53:32.693Z,1021.30
2018-03-28T15:54:33.281Z,1021.32
2018-03-28T15:55:33.860Z,1021.28
2018-03-28T15:56:34.444Z,1021.32
2018-03-28T15:57:35.073Z,1021.31
2018-03-28T15:58:35.658Z,1021.34
2018-03-28T15:59:36.242Z,1021.21
2018-03-28T16:00:36.827Z,1021.22
2018-03-28T16:01:37.411Z,1021.21
2018-03-28T16:02:38.001Z,1021.18
2018-03-28T16:03:38.585Z,1021.25
2018-03-28T16:04:39.164Z,1021.26
2018-03-28T16:05:39.745Z,1021.25
2018-03-28T16:06:40.329Z,1021.25
2018-03-28T16:07:40.963Z,1021.29
2018-03-28T16:08:41.583Z,1021.27
2018-03-28T16:09:42.182Z,1021.29
2018-03-28T16:10:42.817Z,1021.31
2018-03-28T16:11:43.400Z,1021.35
2018-03-28T16:12:43.983Z,1021.37
2018-03-28T16:13:44.571Z,1021.31
2018-03-28T16:14:45.148Z,1021.28
2018-03-28T16:15:45.732Z,1021.26
2018-03-28T16:16:46.321Z,1021.19
2018-03-28T16:17:46.904Z,1021.26
2018-03-28T16:18:47.530Z,1021.29
2018-03-28T16:19:48.112Z,1021.32
2018-03-28T16:20:48.696Z,1021.30
2018-03-28T16:21:49.278Z,1021.32
2018-03-28T16:22:49.864Z,1021.25
2018-03-28T16:23:50.447Z,1021.24
2018-03-28T16:24:51.031Z,1021.25
2018-03-28T16:25:51.614Z,1021.28
2018-03-28T16:26:52.246Z,1021.27
2018-03-28T16:27:52.880Z,1021.27
2018-03-28T16:28:53.873Z,1021.28
2018-03-28T16:30:56.056Z,1021.28
2018-03-28T16:31:56.634Z,1021.22
2018-03-28T16:32:57.209Z,1021.21
2018-03-28T16:33:57.784Z,1021.17
2018-03-28T16:34:58.361Z,1021.16
2018-03-28T16:35:58.939Z,1021.20
2018-03-28T16:36:59.518Z,1021.18
2018-03-28T16:38:00.096Z,1021.24
2018-03-28T16:39:00.702Z,1021.19
2018-03-28T16:40:01.290Z,1021.12
2018-03-28T16:41:01.868Z,1021.04
2018-03-28T16:42:02.479Z,1021.15
2018-03-28T16:43:03.021Z,1021.11
2018-03-28T16:44:03.595Z,1021.22
2018-03-28T16:45:04.220Z,1021.24
2018-03-28T16:46:04.796Z,1021.19
2018-03-28T16:47:05.421Z,1021.27
2018-03-28T16:48:06.082Z,1021.13
2018-03-28T16:49:06.628Z,1021.14
2018-03-28T16:50:07.203Z,1021.12
2018-03-28T16:51:07.780Z,1021.24
2018-03-28T16:52:08.358Z,1021.17
2018-03-28T16:53:08.936Z,1021.17
2018-03-28T16:54:09.508Z,1021.19
2018-03-28T16:55:10.143Z,1021.21
2018-03-28T16:56:10.718Z,1021.15
2018-03-28T16:57:11.301Z,1021.18
2018-03-28T16:58:11.864Z,1021.25
2018-03-28T16:59:12.441Z,1021.15
2018-03-28T17:00:13.020Z,1021.21
2018-03-28T17:01:13.597Z,1021.18
2018-03-28T17:02:14.229Z,1021.17
2018-03-28T17:03:14.852Z,1021.10
2018-03-28T17:04:15.478Z,1021.28
2018-03-28T17:05:16.054Z,1021.17
2018-03-28T17:06:16.630Z,1021.14
2018-03-28T17:07:17.219Z,1021.16
2018-03-28T17:08:17.793Z,1021.13
2018-03-28T17:09:18.361Z,1021.09
2018-03-28T17:10:18.945Z,1021.17
2018-03-28T17:11:19.518Z,1021.15
2018-03-28T17:12:20.100Z,1021.11
2018-03-28T17:13:20.677Z,1021.10
2018-03-28T17:14:21.255Z,1021.16
2018-03-28T17:15:21.833Z,1021.22
2018-03-28T17:16:22.411Z,1021.10
2018-03-28T17:17:23.040Z,1021.09
2018-03-28T17:18:23.620Z,1021.08
2018-03-28T17:19:24.200Z,1021.09
2018-03-28T17:20:24.776Z,1021.10
2018-03-28T17:21:25.403Z,1021.04
2018-03-28T17:22:25.983Z,1021.09
2018-03-28T17:23:26.557Z,1021.12
2018-03-28T17:24:27.186Z,1021.16
2018-03-28T17:25:27.806Z,1021.14
2018-03-28T17:26:28.383Z,1021.07
2018-03-28T17:27:28.961Z,1021.12
2018-03-28T17:28:29.538Z,1021.08
2018-03-28T17:29:30.116Z,1021.12
2018-03-28T17:30:30.795Z,1021.04
2018-03-28T17:31:31.383Z,1021.01
2018-03-28T17:32:31.952Z,1021.05
2018-03-28T17:33:32.632Z,1021.00
2018-03-28T17:34:33.208Z,1021.06
2018-03-28T17:35:33.841Z,1021.06
2018-03-28T17:36:34.413Z,1021.02
2018-03-28T17:37:34.990Z,1021.04
2018-03-28T17:38:35.566Z,1021.06
2018-03-28T17:39:36.145Z,1021.09
2018-03-28T17:40:36.721Z,1021.01
2018-03-28T17:41:37.350Z,1021.03
2018-03-28T17:42:37.874Z,1021.11
2018-03-28T17:43:38.452Z,1021.04
2018-03-28T17:44:39.080Z,1021.02
2018-03-28T17:45:39.706Z,1020.99
2018-03-28T17:46:40.282Z,1020.98
2018-03-28T17:47:40.897Z,1020.94
2018-03-28T17:48:41.436Z,1020.92
2018-03-28T17:49:42.014Z,1020.95
2018-03-28T17:50:42.639Z,1020.98
2018-03-28T17:51:43.264Z,1020.99
2018-03-28T17:52:43.987Z,1020.92
2018-03-28T17:53:44.561Z,1020.96
2018-03-28T17:54:45.136Z,1020.93
2018-03-28T17:55:45.708Z,1020.95
2018-03-28T17:56:46.281Z,1020.95
2018-03-28T17:57:46.855Z,1020.94
2018-03-28T17:58:47.429Z,1020.94
2018-03-28T17:59:48.002Z,1020.97
2018-03-28T18:00:48.577Z,1020.95
2018-03-28T18:01:49.150Z,1020.94
2018-03-28T18:02:49.723Z,1020.98
2018-03-28T18:03:50.295Z,1020.86
2018-03-28T18:04:50.867Z,1020.86
2018-03-28T18:05:51.491Z,1020.90
2018-03-28T18:06:52.068Z,1020.90
2018-03-28T18:07:52.637Z,1020.94
2018-03-28T18:08:53.260Z,1020.94
2018-03-28T18:09:53.882Z,1020.93
2018-03-28T18:10:54.454Z,1020.96
2018-03-28T18:11:55.030Z,1020.84
2018-03-28T18:12:55.601Z,1020.88
2018-03-28T18:13:56.182Z,1020.92
2018-03-28T18:14:56.763Z,1020.89
2018-03-28T18:15:57.342Z,1020.90
2018-03-28T18:16:57.923Z,1020.89
2018-03-28T18:17:58.503Z,1020.94
2018-03-28T18:18:59.083Z,1020.91
2018-03-28T18:19:59.661Z,1020.89
2018-03-28T18:21:00.291Z,1020.92
2018-03-28T18:22:00.871Z,1020.92
2018-03-28T18:23:01.450Z,1020.90
2018-03-28T18:24:02.082Z,1020.79
2018-03-28T18:25:02.712Z,1020.87
2018-03-28T18:26:03.335Z,1020.85
2018-03-28T18:27:03.968Z,1020.91
2018-03-28T18:28:04.543Z,1020.83
2018-03-28T18:29:05.122Z,1020.79
2018-03-28T18:30:05.751Z,1020.85
2018-03-28T18:31:06.330Z,1020.92
2018-03-28T18:32:06.901Z,1020.87
2018-03-28T18:33:22.308Z,1020.90
2018-03-28T18:34:22.879Z,1020.74
2018-03-28T18:35:23.451Z,1020.81
2018-03-28T18:36:24.023Z,1020.88
2018-03-28T18:37:24.594Z,1020.77
2018-03-28T18:38:25.207Z,1020.88
2018-03-28T18:39:25.779Z,1020.76
2018-03-28T18:40:26.404Z,1020.80
2018-03-28T18:41:26.975Z,1020.88
2018-03-28T18:42:27.546Z,1020.81
2018-03-28T18:43:28.118Z,1020.79
2018-03-28T18:44:28.687Z,1020.84
2018-03-28T18:45:29.261Z,1020.84
2018-03-28T18:46:29.881Z,1020.90
2018-03-28T18:47:30.489Z,1020.82
2018-03-28T18:48:31.024Z,1020.77
2018-03-28T18:49:31.596Z,1020.84
2018-03-28T18:50:32.181Z,1020.81
2018-03-28T18:51:32.774Z,1020.86
2018-03-28T18:52:47.096Z,1020.85
2018-03-28T18:53:47.700Z,1020.82
2018-03-28T18:54:48.272Z,1020.79
2018-03-28T18:55:48.894Z,1020.89
2018-03-28T18:56:49.467Z,1020.88
2018-03-28T18:57:50.040Z,1020.88
2018-03-28T18:58:50.661Z,1020.91
2018-03-28T18:59:51.185Z,1020.81
2018-03-28T19:00:51.757Z,1020.86
2018-03-28T19:01:52.331Z,1020.87
2018-03-28T19:02:52.904Z,1020.88
2018-03-28T19:03:53.474Z,1020.91
2018-03-28T19:04:54.047Z,1020.90
2018-03-28T19:05:54.670Z,1020.84
2018-03-28T19:06:55.243Z,1020.84
2018-03-28T19:07:55.824Z,1020.80
2018-03-28T19:08:56.387Z,1020.95
2018-03-28T19:09:57.052Z,1020.80
2018-03-28T19:10:57.627Z,1020.94
2018-03-28T19:11:58.200Z,1020.83